sensor_id;sensor_type;location;lat;lon;timestamp;P1;durP1;ratioP1;P2;durP2;ratioP2
33505;SDS011;19843;51.040;13.782;2023-05-08T00:00:01;2.65;;;2.45;;
33505;SDS011;19843;51.040;13.782;2023-05-08T00:02:30;2.72;;;2.33;;
33505;SDS011;19843;51.040;13.782;2023-05-08T00:04:57;2.58;;;2.38;;
33505;SDS011;19843;51.040;13.782;2023-05-08T00:07:25;4.85;;;2.10;;
33505;SDS011;19843;51.040;13.782;2023-05-08T00:09:54;3.67;;;2.58;;
33505;SDS011;19843;51.040;13.782;2023-05-08T00:12:21;5.13;;;3.30;;
33505;SDS011;19843;51.040;13.782;2023-05-08T00:14:49;3.25;;;2.63;;
33505;SDS011;19843;51.040;13.782;2023-05-08T00:17:16;3.08;;;2.55;;
33505;SDS011;19843;51.040;13.782;2023-05-08T00:19:44;3.97;;;2.83;;
33505;SDS011;19843;51.040;13.782;2023-05-08T00:22:11;4.13;;;2.95;;
33505;SDS011;19843;51.040;13.782;2023-05-08T00:24:38;2.15;;;1.98;;
33505;SDS011;19843;51.040;13.782;2023-05-08T00:27:07;3.47;;;2.85;;
33505;SDS011;19843;51.040;13.782;2023-05-08T00:29:35;3.58;;;2.45;;
33505;SDS011;19843;51.040;13.782;2023-05-08T00:32:03;3.72;;;2.80;;
33505;SDS011;19843;51.040;13.782;2023-05-08T00:34:30;3.67;;;2.70;;
33505;SDS011;19843;51.040;13.782;2023-05-08T00:36:58;2.95;;;2.50;;
33505;SDS011;19843;51.040;13.782;2023-05-08T00:39:25;3.22;;;2.72;;
33505;SDS011;19843;51.040;13.782;2023-05-08T00:41:53;2.55;;;2.35;;
33505;SDS011;19843;51.040;13.782;2023-05-08T00:44:21;2.90;;;2.60;;
33505;SDS011;19843;51.040;13.782;2023-05-08T00:46:49;4.32;;;2.72;;
33505;SDS011;19843;51.040;13.782;2023-05-08T00:49:16;2.30;;;2.10;;
33505;SDS011;19843;51.040;13.782;2023-05-08T00:51:46;3.58;;;2.53;;
33505;SDS011;19843;51.040;13.782;2023-05-08T00:54:16;3.83;;;2.53;;
33505;SDS011;19843;51.040;13.782;2023-05-08T00:56:44;3.63;;;2.80;;
33505;SDS011;19843;51.040;13.782;2023-05-08T00:59:12;3.28;;;2.45;;
33505;SDS011;19843;51.040;13.782;2023-05-08T01:01:42;3.28;;;2.42;;
33505;SDS011;19843;51.040;13.782;2023-05-08T01:04:10;3.22;;;2.40;;
33505;SDS011;19843;51.040;13.782;2023-05-08T01:06:37;2.83;;;2.25;;
33505;SDS011;19843;51.040;13.782;2023-05-08T01:09:05;5.45;;;2.92;;
33505;SDS011;19843;51.040;13.782;2023-05-08T01:11:35;11.45;;;3.15;;
33505;SDS011;19843;51.040;13.782;2023-05-08T01:14:09;2.88;;;2.30;;
33505;SDS011;19843;51.040;13.782;2023-05-08T01:16:43;4.38;;;2.92;;
33505;SDS011;19843;51.040;13.782;2023-05-08T01:22:20;3.60;;;2.95;;
33505;SDS011;19843;51.040;13.782;2023-05-08T01:25:08;2.78;;;2.53;;
33505;SDS011;19843;51.040;13.782;2023-05-08T01:27:54;3.00;;;2.35;;
33505;SDS011;19843;51.040;13.782;2023-05-08T01:30:45;3.78;;;2.75;;
33505;SDS011;19843;51.040;13.782;2023-05-08T01:33:35;3.85;;;3.20;;
33505;SDS011;19843;51.040;13.782;2023-05-08T01:36:10;4.18;;;2.63;;
33505;SDS011;19843;51.040;13.782;2023-05-08T01:38:46;3.35;;;2.75;;
33505;SDS011;19843;51.040;13.782;2023-05-08T01:41:23;3.20;;;2.92;;
33505;SDS011;19843;51.040;13.782;2023-05-08T01:43:54;2.72;;;2.53;;
33505;SDS011;19843;51.040;13.782;2023-05-08T01:46:31;3.97;;;3.50;;
33505;SDS011;19843;51.040;13.782;2023-05-08T01:49:02;2.92;;;2.70;;
33505;SDS011;19843;51.040;13.782;2023-05-08T01:51:35;3.97;;;2.90;;
33505;SDS011;19843;51.040;13.782;2023-05-08T01:54:06;4.28;;;2.70;;
33505;SDS011;19843;51.040;13.782;2023-05-08T01:56:37;3.13;;;2.10;;
33505;SDS011;19843;51.040;13.782;2023-05-08T01:59:08;3.38;;;2.75;;
33505;SDS011;19843;51.040;13.782;2023-05-08T02:01:38;4.20;;;3.10;;
33505;SDS011;19843;51.040;13.782;2023-05-08T02:04:09;3.92;;;2.72;;
33505;SDS011;19843;51.040;13.782;2023-05-08T02:06:39;2.30;;;2.08;;
33505;SDS011;19843;51.040;13.782;2023-05-08T02:09:07;4.20;;;3.45;;
33505;SDS011;19843;51.040;13.782;2023-05-08T02:11:36;5.53;;;2.95;;
33505;SDS011;19843;51.040;13.782;2023-05-08T02:14:06;4.00;;;2.97;;
33505;SDS011;19843;51.040;13.782;2023-05-08T02:16:34;6.30;;;3.38;;
33505;SDS011;19843;51.040;13.782;2023-05-08T02:19:03;2.70;;;2.17;;
33505;SDS011;19843;51.040;13.782;2023-05-08T02:21:35;3.10;;;2.75;;
33505;SDS011;19843;51.040;13.782;2023-05-08T02:24:03;3.78;;;2.75;;
33505;SDS011;19843;51.040;13.782;2023-05-08T02:26:32;3.55;;;2.65;;
33505;SDS011;19843;51.040;13.782;2023-05-08T02:29:01;3.33;;;3.03;;
33505;SDS011;19843;51.040;13.782;2023-05-08T02:31:29;4.65;;;3.03;;
33505;SDS011;19843;51.040;13.782;2023-05-08T02:33:57;2.90;;;2.60;;
33505;SDS011;19843;51.040;13.782;2023-05-08T02:36:28;3.00;;;2.72;;
33505;SDS011;19843;51.040;13.782;2023-05-08T02:38:59;3.78;;;3.28;;
33505;SDS011;19843;51.040;13.782;2023-05-08T02:41:29;6.45;;;2.60;;
33505;SDS011;19843;51.040;13.782;2023-05-08T02:43:59;3.10;;;2.80;;
33505;SDS011;19843;51.040;13.782;2023-05-08T02:46:28;4.40;;;2.80;;
33505;SDS011;19843;51.040;13.782;2023-05-08T02:49:11;5.13;;;3.00;;
33505;SDS011;19843;51.040;13.782;2023-05-08T02:51:45;4.88;;;3.45;;
33505;SDS011;19843;51.040;13.782;2023-05-08T02:54:22;2.67;;;2.47;;
33505;SDS011;19843;51.040;13.782;2023-05-08T02:56:58;4.70;;;2.92;;
33505;SDS011;19843;51.040;13.782;2023-05-08T02:59:30;3.28;;;2.67;;
33505;SDS011;19843;51.040;13.782;2023-05-08T03:02:05;5.82;;;2.60;;
33505;SDS011;19843;51.040;13.782;2023-05-08T03:04:38;2.90;;;2.60;;
33505;SDS011;19843;51.040;13.782;2023-05-08T03:07:11;4.35;;;3.33;;
33505;SDS011;19843;51.040;13.782;2023-05-08T03:09:42;4.78;;;3.38;;
33505;SDS011;19843;51.040;13.782;2023-05-08T03:12:14;5.18;;;3.60;;
33505;SDS011;19843;51.040;13.782;2023-05-08T03:14:49;3.42;;;3.08;;
33505;SDS011;19843;51.040;13.782;2023-05-08T03:17:21;4.72;;;3.47;;
33505;SDS011;19843;51.040;13.782;2023-05-08T03:19:54;4.55;;;3.22;;
33505;SDS011;19843;51.040;13.782;2023-05-08T03:22:26;3.45;;;3.13;;
33505;SDS011;19843;51.040;13.782;2023-05-08T03:24:57;3.80;;;3.10;;
33505;SDS011;19843;51.040;13.782;2023-05-08T03:27:27;4.03;;;3.35;;
33505;SDS011;19843;51.040;13.782;2023-05-08T03:29:56;3.78;;;2.88;;
33505;SDS011;19843;51.040;13.782;2023-05-08T03:32:24;3.92;;;3.38;;
33505;SDS011;19843;51.040;13.782;2023-05-08T03:34:52;4.07;;;3.30;;
33505;SDS011;19843;51.040;13.782;2023-05-08T03:37:21;4.95;;;3.30;;
33505;SDS011;19843;51.040;13.782;2023-05-08T03:39:49;3.88;;;2.97;;
33505;SDS011;19843;51.040;13.782;2023-05-08T03:42:18;3.17;;;2.88;;
33505;SDS011;19843;51.040;13.782;2023-05-08T03:44:47;4.57;;;3.22;;
33505;SDS011;19843;51.040;13.782;2023-05-08T03:47:16;5.85;;;3.65;;
33505;SDS011;19843;51.040;13.782;2023-05-08T03:49:44;4.43;;;3.08;;
33505;SDS011;19843;51.040;13.782;2023-05-08T03:52:13;5.85;;;3.30;;
33505;SDS011;19843;51.040;13.782;2023-05-08T03:54:41;3.53;;;2.92;;
33505;SDS011;19843;51.040;13.782;2023-05-08T03:57:08;4.40;;;3.10;;
33505;SDS011;19843;51.040;13.782;2023-05-08T03:59:41;3.85;;;3.08;;
33505;SDS011;19843;51.040;13.782;2023-05-08T04:02:16;3.72;;;3.08;;
33505;SDS011;19843;51.040;13.782;2023-05-08T04:04:49;3.65;;;3.15;;
33505;SDS011;19843;51.040;13.782;2023-05-08T04:07:23;4.20;;;2.95;;
33505;SDS011;19843;51.040;13.782;2023-05-08T04:09:57;3.80;;;3.03;;
33505;SDS011;19843;51.040;13.782;2023-05-08T04:12:31;3.47;;;2.83;;
33505;SDS011;19843;51.040;13.782;2023-05-08T04:15:06;3.35;;;3.08;;
33505;SDS011;19843;51.040;13.782;2023-05-08T04:17:38;3.70;;;3.03;;
33505;SDS011;19843;51.040;13.782;2023-05-08T04:20:09;4.72;;;3.03;;
33505;SDS011;19843;51.040;13.782;2023-05-08T04:22:39;4.85;;;3.15;;
33505;SDS011;19843;51.040;13.782;2023-05-08T04:25:08;3.92;;;3.25;;
33505;SDS011;19843;51.040;13.782;2023-05-08T04:27:38;2.80;;;2.60;;
33505;SDS011;19843;51.040;13.782;2023-05-08T04:30:10;3.85;;;3.40;;
33505;SDS011;19843;51.040;13.782;2023-05-08T04:32:39;4.82;;;3.65;;
33505;SDS011;19843;51.040;13.782;2023-05-08T04:35:11;5.68;;;2.80;;
33505;SDS011;19843;51.040;13.782;2023-05-08T04:37:40;2.90;;;2.53;;
33505;SDS011;19843;51.040;13.782;2023-05-08T04:40:09;3.30;;;2.95;;
33505;SDS011;19843;51.040;13.782;2023-05-08T04:42:37;3.72;;;3.33;;
33505;SDS011;19843;51.040;13.782;2023-05-08T04:45:09;2.92;;;2.63;;
33505;SDS011;19843;51.040;13.782;2023-05-08T04:47:37;4.57;;;2.80;;
33505;SDS011;19843;51.040;13.782;2023-05-08T04:50:05;2.78;;;2.50;;
33505;SDS011;19843;51.040;13.782;2023-05-08T04:52:33;3.67;;;3.28;;
33505;SDS011;19843;51.040;13.782;2023-05-08T04:55:01;5.18;;;3.58;;
33505;SDS011;19843;51.040;13.782;2023-05-08T04:57:28;3.08;;;2.70;;
33505;SDS011;19843;51.040;13.782;2023-05-08T04:59:56;3.42;;;2.90;;
33505;SDS011;19843;51.040;13.782;2023-05-08T05:02:25;4.57;;;2.85;;
33505;SDS011;19843;51.040;13.782;2023-05-08T05:04:53;2.88;;;2.67;;
33505;SDS011;19843;51.040;13.782;2023-05-08T05:07:23;3.53;;;2.72;;
33505;SDS011;19843;51.040;13.782;2023-05-08T05:09:51;2.92;;;2.20;;
33505;SDS011;19843;51.040;13.782;2023-05-08T05:12:18;3.72;;;2.80;;
33505;SDS011;19843;51.040;13.782;2023-05-08T05:14:46;2.35;;;2.15;;
33505;SDS011;19843;51.040;13.782;2023-05-08T05:17:13;2.35;;;2.13;;
33505;SDS011;19843;51.040;13.782;2023-05-08T05:19:42;2.45;;;2.17;;
33505;SDS011;19843;51.040;13.782;2023-05-08T05:22:09;2.63;;;2.42;;
33505;SDS011;19843;51.040;13.782;2023-05-08T05:24:36;3.42;;;2.40;;
33505;SDS011;19843;51.040;13.782;2023-05-08T05:27:04;4.05;;;3.65;;
33505;SDS011;19843;51.040;13.782;2023-05-08T05:29:32;3.97;;;2.42;;
33505;SDS011;19843;51.040;13.782;2023-05-08T05:32:00;5.72;;;2.83;;
33505;SDS011;19843;51.040;13.782;2023-05-08T05:34:28;2.65;;;2.22;;
33505;SDS011;19843;51.040;13.782;2023-05-08T05:36:57;2.25;;;2.05;;
33505;SDS011;19843;51.040;13.782;2023-05-08T05:39:24;2.80;;;2.45;;
33505;SDS011;19843;51.040;13.782;2023-05-08T05:41:52;2.88;;;1.98;;
33505;SDS011;19843;51.040;13.782;2023-05-08T05:44:19;4.40;;;1.95;;
33505;SDS011;19843;51.040;13.782;2023-05-08T05:46:46;3.33;;;2.83;;
33505;SDS011;19843;51.040;13.782;2023-05-08T05:49:14;3.50;;;2.33;;
33505;SDS011;19843;51.040;13.782;2023-05-08T05:51:41;2.05;;;1.85;;
33505;SDS011;19843;51.040;13.782;2023-05-08T05:54:10;5.18;;;2.70;;
33505;SDS011;19843;51.040;13.782;2023-05-08T05:56:37;1.92;;;1.83;;
33505;SDS011;19843;51.040;13.782;2023-05-08T05:59:05;3.20;;;2.67;;
33505;SDS011;19843;51.040;13.782;2023-05-08T06:01:32;2.25;;;2.00;;
33505;SDS011;19843;51.040;13.782;2023-05-08T06:04:00;6.22;;;2.78;;
33505;SDS011;19843;51.040;13.782;2023-05-08T06:06:27;2.17;;;1.98;;
33505;SDS011;19843;51.040;13.782;2023-05-08T06:08:55;1.98;;;1.77;;
33505;SDS011;19843;51.040;13.782;2023-05-08T06:11:23;2.55;;;2.30;;
33505;SDS011;19843;51.040;13.782;2023-05-08T06:13:51;3.47;;;2.15;;
33505;SDS011;19843;51.040;13.782;2023-05-08T06:16:18;2.85;;;2.40;;
33505;SDS011;19843;51.040;13.782;2023-05-08T06:18:48;2.45;;;2.25;;
33505;SDS011;19843;51.040;13.782;2023-05-08T06:21:15;2.58;;;2.38;;
33505;SDS011;19843;51.040;13.782;2023-05-08T06:23:43;2.65;;;1.95;;
33505;SDS011;19843;51.040;13.782;2023-05-08T06:26:10;1.98;;;1.40;;
33505;SDS011;19843;51.040;13.782;2023-05-08T06:28:39;2.00;;;1.90;;
33505;SDS011;19843;51.040;13.782;2023-05-08T06:31:07;1.75;;;1.65;;
33505;SDS011;19843;51.040;13.782;2023-05-08T06:33:34;4.07;;;2.08;;
33505;SDS011;19843;51.040;13.782;2023-05-08T06:36:02;2.63;;;2.08;;
33505;SDS011;19843;51.040;13.782;2023-05-08T06:38:30;2.58;;;1.92;;
33505;SDS011;19843;51.040;13.782;2023-05-08T06:40:58;2.05;;;1.92;;
33505;SDS011;19843;51.040;13.782;2023-05-08T06:43:25;2.80;;;2.15;;
33505;SDS011;19843;51.040;13.782;2023-05-08T06:45:54;2.17;;;1.95;;
33505;SDS011;19843;51.040;13.782;2023-05-08T06:48:22;1.70;;;1.58;;
33505;SDS011;19843;51.040;13.782;2023-05-08T06:50:54;2.13;;;1.92;;
33505;SDS011;19843;51.040;13.782;2023-05-08T06:53:21;2.10;;;1.90;;
33505;SDS011;19843;51.040;13.782;2023-05-08T06:55:48;1.85;;;1.75;;
33505;SDS011;19843;51.040;13.782;2023-05-08T06:58:16;3.58;;;1.83;;
33505;SDS011;19843;51.040;13.782;2023-05-08T07:00:43;1.92;;;1.80;;
33505;SDS011;19843;51.040;13.782;2023-05-08T07:03:12;2.00;;;1.70;;
33505;SDS011;19843;51.040;13.782;2023-05-08T07:05:40;2.10;;;1.90;;
33505;SDS011;19843;51.040;13.782;2023-05-08T07:08:07;1.92;;;1.83;;
33505;SDS011;19843;51.040;13.782;2023-05-08T07:10:35;5.03;;;1.92;;
33505;SDS011;19843;51.040;13.782;2023-05-08T07:13:03;3.20;;;1.80;;
33505;SDS011;19843;51.040;13.782;2023-05-08T07:15:30;2.75;;;1.98;;
33505;SDS011;19843;51.040;13.782;2023-05-08T07:17:58;3.08;;;2.00;;
33505;SDS011;19843;51.040;13.782;2023-05-08T07:20:27;2.38;;;2.17;;
33505;SDS011;19843;51.040;13.782;2023-05-08T07:22:54;1.70;;;1.60;;
33505;SDS011;19843;51.040;13.782;2023-05-08T07:25:21;2.25;;;1.65;;
33505;SDS011;19843;51.040;13.782;2023-05-08T07:27:49;2.78;;;1.75;;
33505;SDS011;19843;51.040;13.782;2023-05-08T07:30:16;1.63;;;1.52;;
33505;SDS011;19843;51.040;13.782;2023-05-08T07:32:44;1.40;;;1.30;;
33505;SDS011;19843;51.040;13.782;2023-05-08T07:35:11;2.03;;;1.88;;
33505;SDS011;19843;51.040;13.782;2023-05-08T07:37:42;1.60;;;1.50;;
33505;SDS011;19843;51.040;13.782;2023-05-08T07:40:09;2.35;;;1.88;;
33505;SDS011;19843;51.040;13.782;2023-05-08T07:42:38;2.20;;;1.27;;
33505;SDS011;19843;51.040;13.782;2023-05-08T07:45:06;2.53;;;1.60;;
33505;SDS011;19843;51.040;13.782;2023-05-08T07:47:35;5.75;;;1.85;;
33505;SDS011;19843;51.040;13.782;2023-05-08T07:50:02;1.25;;;1.08;;
33505;SDS011;19843;51.040;13.782;2023-05-08T07:52:30;1.50;;;1.40;;
33505;SDS011;19843;51.040;13.782;2023-05-08T07:54:59;1.35;;;1.30;;
33505;SDS011;19843;51.040;13.782;2023-05-08T07:57:26;1.85;;;1.30;;
33505;SDS011;19843;51.040;13.782;2023-05-08T07:59:59;0.80;;;0.75;;
33505;SDS011;19843;51.040;13.782;2023-05-08T08:02:28;1.17;;;1.08;;
33505;SDS011;19843;51.040;13.782;2023-05-08T08:04:56;0.98;;;0.98;;
33505;SDS011;19843;51.040;13.782;2023-05-08T08:07:23;0.73;;;0.73;;
33505;SDS011;19843;51.040;13.782;2023-05-08T08:09:51;1.35;;;1.25;;
33505;SDS011;19843;51.040;13.782;2023-05-08T08:12:20;1.05;;;1.00;;
33505;SDS011;19843;51.040;13.782;2023-05-08T08:14:48;1.30;;;1.20;;
33505;SDS011;19843;51.040;13.782;2023-05-08T08:17:16;1.60;;;1.25;;
33505;SDS011;19843;51.040;13.782;2023-05-08T08:19:44;2.15;;;1.50;;
33505;SDS011;19843;51.040;13.782;2023-05-08T08:22:11;2.13;;;1.30;;
33505;SDS011;19843;51.040;13.782;2023-05-08T08:24:38;1.35;;;1.25;;
33505;SDS011;19843;51.040;13.782;2023-05-08T08:27:06;1.25;;;1.15;;
33505;SDS011;19843;51.040;13.782;2023-05-08T08:29:35;1.05;;;1.05;;
33505;SDS011;19843;51.040;13.782;2023-05-08T08:32:02;0.98;;;0.98;;
33505;SDS011;19843;51.040;13.782;2023-05-08T08:34:31;0.75;;;0.75;;
33505;SDS011;19843;51.040;13.782;2023-05-08T08:36:59;0.98;;;0.90;;
33505;SDS011;19843;51.040;13.782;2023-05-08T08:39:27;0.90;;;0.90;;
33505;SDS011;19843;51.040;13.782;2023-05-08T08:41:58;1.30;;;1.20;;
33505;SDS011;19843;51.040;13.782;2023-05-08T08:44:25;1.33;;;1.23;;
33505;SDS011;19843;51.040;13.782;2023-05-08T08:46:55;1.02;;;1.02;;
33505;SDS011;19843;51.040;13.782;2023-05-08T08:49:27;0.90;;;0.90;;
33505;SDS011;19843;51.040;13.782;2023-05-08T08:51:58;1.20;;;1.10;;
33505;SDS011;19843;51.040;13.782;2023-05-08T08:54:29;1.52;;;0.80;;
33505;SDS011;19843;51.040;13.782;2023-05-08T08:57:00;1.10;;;0.90;;
33505;SDS011;19843;51.040;13.782;2023-05-08T08:59:32;0.80;;;0.80;;
33505;SDS011;19843;51.040;13.782;2023-05-08T09:02:04;1.90;;;1.02;;
33505;SDS011;19843;51.040;13.782;2023-05-08T09:04:33;0.90;;;0.90;;
33505;SDS011;19843;51.040;13.782;2023-05-08T09:07:01;1.40;;;1.30;;
33505;SDS011;19843;51.040;13.782;2023-05-08T09:09:30;1.75;;;1.20;;
33505;SDS011;19843;51.040;13.782;2023-05-08T09:11:59;1.42;;;1.33;;
33505;SDS011;19843;51.040;13.782;2023-05-08T09:14:26;0.60;;;0.60;;
33505;SDS011;19843;51.040;13.782;2023-05-08T09:16:53;1.27;;;1.02;;
33505;SDS011;19843;51.040;13.782;2023-05-08T09:19:22;0.93;;;0.93;;
33505;SDS011;19843;51.040;13.782;2023-05-08T09:21:54;0.73;;;0.73;;
33505;SDS011;19843;51.040;13.782;2023-05-08T09:24:26;1.27;;;0.95;;
33505;SDS011;19843;51.040;13.782;2023-05-08T09:27:23;1.40;;;1.30;;
33505;SDS011;19843;51.040;13.782;2023-05-08T09:29:58;0.55;;;0.55;;
33505;SDS011;19843;51.040;13.782;2023-05-08T09:32:28;0.77;;;0.77;;
33505;SDS011;19843;51.040;13.782;2023-05-08T09:34:57;0.88;;;0.88;;
33505;SDS011;19843;51.040;13.782;2023-05-08T09:37:25;1.42;;;0.80;;
33505;SDS011;19843;51.040;13.782;2023-05-08T09:39:53;1.10;;;0.80;;
33505;SDS011;19843;51.040;13.782;2023-05-08T09:42:20;1.23;;;1.13;;
33505;SDS011;19843;51.040;13.782;2023-05-08T09:44:50;0.90;;;0.90;;
33505;SDS011;19843;51.040;13.782;2023-05-08T09:47:19;1.13;;;1.00;;
33505;SDS011;19843;51.040;13.782;2023-05-08T09:49:58;0.75;;;0.70;;
33505;SDS011;19843;51.040;13.782;2023-05-08T09:52:28;1.58;;;1.20;;
33505;SDS011;19843;51.040;13.782;2023-05-08T09:54:56;0.70;;;0.70;;
33505;SDS011;19843;51.040;13.782;2023-05-08T09:57:25;1.10;;;1.00;;
33505;SDS011;19843;51.040;13.782;2023-05-08T09:59:59;0.88;;;0.88;;
33505;SDS011;19843;51.040;13.782;2023-05-08T10:02:28;1.10;;;1.00;;
33505;SDS011;19843;51.040;13.782;2023-05-08T10:04:55;1.67;;;1.58;;
33505;SDS011;19843;51.040;13.782;2023-05-08T10:07:27;0.90;;;0.90;;
33505;SDS011;19843;51.040;13.782;2023-05-08T10:09:56;1.20;;;1.10;;
33505;SDS011;19843;51.040;13.782;2023-05-08T10:12:25;1.30;;;1.20;;
33505;SDS011;19843;51.040;13.782;2023-05-08T10:14:52;1.25;;;1.15;;
33505;SDS011;19843;51.040;13.782;2023-05-08T10:17:24;2.13;;;0.85;;
33505;SDS011;19843;51.040;13.782;2023-05-08T10:19:54;1.17;;;0.90;;
33505;SDS011;19843;51.040;13.782;2023-05-08T10:22:27;1.40;;;1.30;;
33505;SDS011;19843;51.040;13.782;2023-05-08T10:24:56;0.90;;;0.90;;
33505;SDS011;19843;51.040;13.782;2023-05-08T10:27:29;1.08;;;0.93;;
33505;SDS011;19843;51.040;13.782;2023-05-08T10:30:01;1.45;;;1.35;;
33505;SDS011;19843;51.040;13.782;2023-05-08T10:32:31;1.20;;;1.10;;
33505;SDS011;19843;51.040;13.782;2023-05-08T10:35:04;1.65;;;1.55;;
33505;SDS011;19843;51.040;13.782;2023-05-08T10:37:36;1.75;;;1.50;;
33505;SDS011;19843;51.040;13.782;2023-05-08T10:40:05;1.02;;;1.00;;
33505;SDS011;19843;51.040;13.782;2023-05-08T10:42:33;1.10;;;1.05;;
33505;SDS011;19843;51.040;13.782;2023-05-08T10:45:01;0.80;;;0.80;;
33505;SDS011;19843;51.040;13.782;2023-05-08T10:47:34;0.93;;;0.93;;
33505;SDS011;19843;51.040;13.782;2023-05-08T10:50:15;1.23;;;1.20;;
33505;SDS011;19843;51.040;13.782;2023-05-08T10:52:58;1.08;;;1.00;;
33505;SDS011;19843;51.040;13.782;2023-05-08T10:55:32;1.58;;;1.23;;
33505;SDS011;19843;51.040;13.782;2023-05-08T10:58:04;1.10;;;1.00;;
33505;SDS011;19843;51.040;13.782;2023-05-08T11:03:38;1.30;;;1.20;;
33505;SDS011;19843;51.040;13.782;2023-05-08T11:06:07;1.10;;;0.95;;
33505;SDS011;19843;51.040;13.782;2023-05-08T11:08:44;1.40;;;1.30;;
33505;SDS011;19843;51.040;13.782;2023-05-08T11:11:15;1.00;;;1.00;;
33505;SDS011;19843;51.040;13.782;2023-05-08T11:13:49;1.27;;;1.25;;
33505;SDS011;19843;51.040;13.782;2023-05-08T11:19:29;1.10;;;1.00;;
33505;SDS011;19843;51.040;13.782;2023-05-08T11:22:12;1.80;;;0.88;;
33505;SDS011;19843;51.040;13.782;2023-05-08T11:24:47;0.88;;;0.88;;
33505;SDS011;19843;51.040;13.782;2023-05-08T11:27:16;1.05;;;0.85;;
33505;SDS011;19843;51.040;13.782;2023-05-08T11:29:43;1.20;;;0.95;;
33505;SDS011;19843;51.040;13.782;2023-05-08T11:32:11;1.95;;;1.10;;
33505;SDS011;19843;51.040;13.782;2023-05-08T11:34:43;1.00;;;0.90;;
33505;SDS011;19843;51.040;13.782;2023-05-08T11:37:12;1.00;;;0.73;;
33505;SDS011;19843;51.040;13.782;2023-05-08T11:39:43;1.67;;;1.25;;
33505;SDS011;19843;51.040;13.782;2023-05-08T11:45:03;1.00;;;1.00;;
33505;SDS011;19843;51.040;13.782;2023-05-08T11:47:35;1.13;;;1.02;;
33505;SDS011;19843;51.040;13.782;2023-05-08T11:50:05;1.23;;;0.90;;
33505;SDS011;19843;51.040;13.782;2023-05-08T11:52:34;1.48;;;1.25;;
33505;SDS011;19843;51.040;13.782;2023-05-08T11:55:03;1.10;;;1.10;;
33505;SDS011;19843;51.040;13.782;2023-05-08T11:57:32;0.70;;;0.70;;
33505;SDS011;19843;51.040;13.782;2023-05-08T12:00:03;2.15;;;1.27;;
33505;SDS011;19843;51.040;13.782;2023-05-08T12:02:35;1.15;;;1.05;;
33505;SDS011;19843;51.040;13.782;2023-05-08T12:05:04;2.05;;;0.98;;
33505;SDS011;19843;51.040;13.782;2023-05-08T12:07:41;1.50;;;1.27;;
33505;SDS011;19843;51.040;13.782;2023-05-08T12:10:09;1.27;;;1.20;;
33505;SDS011;19843;51.040;13.782;2023-05-08T12:12:38;1.25;;;1.15;;
33505;SDS011;19843;51.040;13.782;2023-05-08T12:15:08;2.58;;;1.42;;
33505;SDS011;19843;51.040;13.782;2023-05-08T12:17:37;0.65;;;0.65;;
33505;SDS011;19843;51.040;13.782;2023-05-08T12:20:09;1.20;;;1.10;;
33505;SDS011;19843;51.040;13.782;2023-05-08T12:22:38;1.10;;;1.00;;
33505;SDS011;19843;51.040;13.782;2023-05-08T12:25:06;1.02;;;1.02;;
33505;SDS011;19843;51.040;13.782;2023-05-08T12:27:37;1.27;;;1.20;;
33505;SDS011;19843;51.040;13.782;2023-05-08T12:30:05;1.55;;;1.42;;
33505;SDS011;19843;51.040;13.782;2023-05-08T12:32:37;1.30;;;1.20;;
33505;SDS011;19843;51.040;13.782;2023-05-08T12:35:06;1.13;;;1.05;;
33505;SDS011;19843;51.040;13.782;2023-05-08T12:37:35;2.00;;;1.33;;
33505;SDS011;19843;51.040;13.782;2023-05-08T12:40:04;2.03;;;1.13;;
33505;SDS011;19843;51.040;13.782;2023-05-08T12:42:42;0.70;;;0.70;;
33505;SDS011;19843;51.040;13.782;2023-05-08T12:45:15;0.82;;;0.82;;
33505;SDS011;19843;51.040;13.782;2023-05-08T12:47:45;0.60;;;0.60;;
33505;SDS011;19843;51.040;13.782;2023-05-08T12:50:14;0.70;;;0.70;;
33505;SDS011;19843;51.040;13.782;2023-05-08T12:52:42;0.95;;;0.90;;
33505;SDS011;19843;51.040;13.782;2023-05-08T12:58:00;0.85;;;0.85;;
33505;SDS011;19843;51.040;13.782;2023-05-08T13:00:38;0.95;;;0.95;;
33505;SDS011;19843;51.040;13.782;2023-05-08T13:03:08;1.13;;;0.95;;
33505;SDS011;19843;51.040;13.782;2023-05-08T13:05:40;0.93;;;0.70;;
33505;SDS011;19843;51.040;13.782;2023-05-08T13:08:08;0.80;;;0.80;;
33505;SDS011;19843;51.040;13.782;2023-05-08T13:10:42;0.70;;;0.70;;
33505;SDS011;19843;51.040;13.782;2023-05-08T13:13:14;0.80;;;0.80;;
33505;SDS011;19843;51.040;13.782;2023-05-08T13:15:43;0.65;;;0.60;;
33505;SDS011;19843;51.040;13.782;2023-05-08T13:18:12;1.27;;;0.80;;
33505;SDS011;19843;51.040;13.782;2023-05-08T13:20:40;0.95;;;0.95;;
33505;SDS011;19843;51.040;13.782;2023-05-08T13:23:08;1.13;;;0.90;;
33505;SDS011;19843;51.040;13.782;2023-05-08T13:25:36;1.42;;;0.70;;
33505;SDS011;19843;51.040;13.782;2023-05-08T13:28:04;1.40;;;1.05;;
33505;SDS011;19843;51.040;13.782;2023-05-08T13:30:32;0.77;;;0.63;;
33505;SDS011;19843;51.040;13.782;2023-05-08T13:33:00;1.20;;;1.10;;
33505;SDS011;19843;51.040;13.782;2023-05-08T13:35:29;2.67;;;1.42;;
33505;SDS011;19843;51.040;13.782;2023-05-08T13:37:57;1.30;;;0.95;;
33505;SDS011;19843;51.040;13.782;2023-05-08T13:40:25;0.98;;;0.98;;
33505;SDS011;19843;51.040;13.782;2023-05-08T13:42:52;5.45;;;1.35;;
33505;SDS011;19843;51.040;13.782;2023-05-08T13:45:20;1.98;;;1.20;;
33505;SDS011;19843;51.040;13.782;2023-05-08T13:47:48;1.42;;;1.20;;
33505;SDS011;19843;51.040;13.782;2023-05-08T13:50:16;2.78;;;1.15;;
33505;SDS011;19843;51.040;13.782;2023-05-08T13:52:48;1.48;;;1.00;;
33505;SDS011;19843;51.040;13.782;2023-05-08T13:55:19;1.23;;;1.10;;
33505;SDS011;19843;51.040;13.782;2023-05-08T13:57:48;1.35;;;1.25;;
33505;SDS011;19843;51.040;13.782;2023-05-08T14:00:15;1.45;;;1.35;;
33505;SDS011;19843;51.040;13.782;2023-05-08T14:02:44;0.93;;;0.93;;
33505;SDS011;19843;51.040;13.782;2023-05-08T14:05:11;1.25;;;1.15;;
33505;SDS011;19843;51.040;13.782;2023-05-08T14:07:39;2.00;;;1.33;;
33505;SDS011;19843;51.040;13.782;2023-05-08T14:10:09;1.85;;;1.10;;
33505;SDS011;19843;51.040;13.782;2023-05-08T14:12:37;1.73;;;1.48;;
33505;SDS011;19843;51.040;13.782;2023-05-08T14:15:06;0.80;;;0.80;;
33505;SDS011;19843;51.040;13.782;2023-05-08T14:17:34;4.63;;;1.33;;
33505;SDS011;19843;51.040;13.782;2023-05-08T14:20:02;1.55;;;1.30;;
33505;SDS011;19843;51.040;13.782;2023-05-08T14:22:30;1.33;;;1.08;;
33505;SDS011;19843;51.040;13.782;2023-05-08T14:24:58;1.23;;;1.13;;
33505;SDS011;19843;51.040;13.782;2023-05-08T14:27:26;0.82;;;0.80;;
33505;SDS011;19843;51.040;13.782;2023-05-08T14:29:54;1.75;;;1.60;;
33505;SDS011;19843;51.040;13.782;2023-05-08T14:32:21;1.30;;;1.20;;
33505;SDS011;19843;51.040;13.782;2023-05-08T14:34:49;3.47;;;1.40;;
33505;SDS011;19843;51.040;13.782;2023-05-08T14:37:16;1.55;;;1.33;;
33505;SDS011;19843;51.040;13.782;2023-05-08T14:39:44;1.33;;;1.23;;
33505;SDS011;19843;51.040;13.782;2023-05-08T14:42:11;1.17;;;1.08;;
33505;SDS011;19843;51.040;13.782;2023-05-08T14:44:50;0.82;;;0.82;;
33505;SDS011;19843;51.040;13.782;2023-05-08T14:47:17;3.13;;;1.27;;
33505;SDS011;19843;51.040;13.782;2023-05-08T14:49:45;1.67;;;1.13;;
33505;SDS011;19843;51.040;13.782;2023-05-08T14:52:12;1.20;;;1.13;;
33505;SDS011;19843;51.040;13.782;2023-05-08T14:54:40;0.98;;;0.82;;
33505;SDS011;19843;51.040;13.782;2023-05-08T14:57:08;1.23;;;1.15;;
33505;SDS011;19843;51.040;13.782;2023-05-08T14:59:35;1.77;;;1.23;;
33505;SDS011;19843;51.040;13.782;2023-05-08T15:02:10;1.50;;;1.40;;